Joint Base Elmendorf-Richardson, Alaska
Current Conditions -  °F | °C
As of 2:58 PM on Thursday 27 Nov 2014 (Local Time) from PAED Reporting Station
Overcast Overcast  
Wind Chill: 21°   Ceiling: 900
Heat Index: 21°   Visibility: 8mi
Dew Point: 19°   Wind: 2mph
Humidity: 93%   Direction: 70°ENE
Pressure: 30.18"   Gusts: NA
Location:  61.25°N, 149.81°W
Report Text: PAED 272358Z AUTO 07002KT 8SM SCT003 OVC009 M06/M07 A3018 RMK AO2 SLP219 T10621072 11057 21076 57009
Loading
Personal Weather Stations






























Interactive Weather Map New forecast layout! Learn more

10-Day Weather Forecast

Advertisements
Track Severe Weather on mobile